sensor_id;sensor_type;location;lat;lon;timestamp;P1;durP1;ratioP1;P2;durP2;ratioP2
31368;SDS011;18004;48.416;10.066;2022-07-23T00:00:52;3.25;;;2.63;;
31368;SDS011;18004;48.416;10.066;2022-07-23T00:03:18;3.47;;;2.50;;
31368;SDS011;18004;48.416;10.066;2022-07-23T00:05:44;4.45;;;2.90;;
31368;SDS011;18004;48.416;10.066;2022-07-23T00:08:10;2.95;;;2.58;;
31368;SDS011;18004;48.416;10.066;2022-07-23T00:10:36;3.35;;;2.50;;
31368;SDS011;18004;48.416;10.066;2022-07-23T00:13:02;4.38;;;2.60;;
31368;SDS011;18004;48.416;10.066;2022-07-23T00:15:28;3.17;;;2.20;;
31368;SDS011;18004;48.416;10.066;2022-07-23T00:17:54;7.15;;;2.25;;
31368;SDS011;18004;48.416;10.066;2022-07-23T00:20:20;4.82;;;2.20;;
31368;SDS011;18004;48.416;10.066;2022-07-23T00:22:47;4.22;;;2.67;;
31368;SDS011;18004;48.416;10.066;2022-07-23T00:25:13;5.07;;;2.55;;
31368;SDS011;18004;48.416;10.066;2022-07-23T00:27:38;4.97;;;2.95;;
31368;SDS011;18004;48.416;10.066;2022-07-23T00:30:04;3.83;;;2.40;;
31368;SDS011;18004;48.416;10.066;2022-07-23T00:32:31;2.67;;;2.35;;
31368;SDS011;18004;48.416;10.066;2022-07-23T00:34:56;6.13;;;2.40;;
31368;SDS011;18004;48.416;10.066;2022-07-23T00:37:22;7.18;;;2.72;;
31368;SDS011;18004;48.416;10.066;2022-07-23T00:39:48;3.25;;;2.75;;
31368;SDS011;18004;48.416;10.066;2022-07-23T00:42:14;8.50;;;3.30;;
31368;SDS011;18004;48.416;10.066;2022-07-23T00:44:40;5.70;;;3.22;;
31368;SDS011;18004;48.416;10.066;2022-07-23T00:47:06;7.82;;;2.58;;
31368;SDS011;18004;48.416;10.066;2022-07-23T00:49:32;5.57;;;2.97;;
31368;SDS011;18004;48.416;10.066;2022-07-23T00:51:58;5.15;;;2.95;;
31368;SDS011;18004;48.416;10.066;2022-07-23T00:54:27;3.92;;;2.63;;
31368;SDS011;18004;48.416;10.066;2022-07-23T00:56:53;3.80;;;2.70;;
31368;SDS011;18004;48.416;10.066;2022-07-23T00:59:19;9.10;;;3.03;;
31368;SDS011;18004;48.416;10.066;2022-07-23T01:01:45;3.08;;;2.78;;
31368;SDS011;18004;48.416;10.066;2022-07-23T01:04:14;3.67;;;2.83;;
31368;SDS011;18004;48.416;10.066;2022-07-23T01:06:40;4.15;;;2.88;;
31368;SDS011;18004;48.416;10.066;2022-07-23T01:09:06;2.95;;;2.20;;
31368;SDS011;18004;48.416;10.066;2022-07-23T01:11:36;3.53;;;2.75;;
31368;SDS011;18004;48.416;10.066;2022-07-23T01:14:12;5.15;;;2.45;;
31368;SDS011;18004;48.416;10.066;2022-07-23T01:16:40;3.53;;;3.13;;
31368;SDS011;18004;48.416;10.066;2022-07-23T01:19:07;2.50;;;2.30;;
31368;SDS011;18004;48.416;10.066;2022-07-23T01:21:37;4.05;;;2.80;;
31368;SDS011;18004;48.416;10.066;2022-07-23T01:24:07;7.75;;;2.55;;
31368;SDS011;18004;48.416;10.066;2022-07-23T01:26:34;3.25;;;2.60;;
31368;SDS011;18004;48.416;10.066;2022-07-23T01:29:00;5.55;;;3.38;;
31368;SDS011;18004;48.416;10.066;2022-07-23T01:31:27;4.20;;;2.78;;
31368;SDS011;18004;48.416;10.066;2022-07-23T01:33:53;9.82;;;2.97;;
31368;SDS011;18004;48.416;10.066;2022-07-23T01:36:19;3.58;;;2.80;;
31368;SDS011;18004;48.416;10.066;2022-07-23T01:38:45;4.63;;;3.03;;
31368;SDS011;18004;48.416;10.066;2022-07-23T01:41:10;5.85;;;2.60;;
31368;SDS011;18004;48.416;10.066;2022-07-23T01:43:37;5.13;;;3.25;;
31368;SDS011;18004;48.416;10.066;2022-07-23T01:46:02;7.72;;;2.75;;
31368;SDS011;18004;48.416;10.066;2022-07-23T01:48:28;3.78;;;2.45;;
31368;SDS011;18004;48.416;10.066;2022-07-23T01:50:54;4.03;;;2.63;;
31368;SDS011;18004;48.416;10.066;2022-07-23T01:53:20;4.20;;;3.17;;
31368;SDS011;18004;48.416;10.066;2022-07-23T01:55:45;5.00;;;2.75;;
31368;SDS011;18004;48.416;10.066;2022-07-23T01:58:11;4.55;;;2.92;;
31368;SDS011;18004;48.416;10.066;2022-07-23T02:00:37;4.47;;;3.13;;
31368;SDS011;18004;48.416;10.066;2022-07-23T02:03:03;5.65;;;3.05;;
31368;SDS011;18004;48.416;10.066;2022-07-23T02:05:29;5.68;;;3.28;;
31368;SDS011;18004;48.416;10.066;2022-07-23T02:07:58;3.38;;;2.50;;
31368;SDS011;18004;48.416;10.066;2022-07-23T02:10:24;3.55;;;2.65;;
31368;SDS011;18004;48.416;10.066;2022-07-23T02:12:50;3.00;;;2.70;;
31368;SDS011;18004;48.416;10.066;2022-07-23T02:15:16;3.45;;;2.55;;
31368;SDS011;18004;48.416;10.066;2022-07-23T02:17:42;5.53;;;3.30;;
31368;SDS011;18004;48.416;10.066;2022-07-23T02:20:08;2.90;;;2.53;;
31368;SDS011;18004;48.416;10.066;2022-07-23T02:22:35;4.30;;;2.85;;
31368;SDS011;18004;48.416;10.066;2022-07-23T02:25:01;4.28;;;3.33;;
31368;SDS011;18004;48.416;10.066;2022-07-23T02:27:29;6.72;;;3.13;;
31368;SDS011;18004;48.416;10.066;2022-07-23T02:29:54;3.92;;;2.67;;
31368;SDS011;18004;48.416;10.066;2022-07-23T02:32:20;4.25;;;3.25;;
31368;SDS011;18004;48.416;10.066;2022-07-23T02:34:48;4.03;;;3.10;;
31368;SDS011;18004;48.416;10.066;2022-07-23T02:37:15;6.97;;;3.50;;
31368;SDS011;18004;48.416;10.066;2022-07-23T02:39:41;3.58;;;2.90;;
31368;SDS011;18004;48.416;10.066;2022-07-23T02:42:06;4.05;;;3.10;;
31368;SDS011;18004;48.416;10.066;2022-07-23T02:44:33;4.88;;;3.10;;
31368;SDS011;18004;48.416;10.066;2022-07-23T02:46:59;5.13;;;3.42;;
31368;SDS011;18004;48.416;10.066;2022-07-23T02:49:25;8.25;;;3.38;;
31368;SDS011;18004;48.416;10.066;2022-07-23T02:51:50;5.80;;;3.42;;
31368;SDS011;18004;48.416;10.066;2022-07-23T02:54:19;4.18;;;3.33;;
31368;SDS011;18004;48.416;10.066;2022-07-23T02:56:45;5.72;;;3.40;;
31368;SDS011;18004;48.416;10.066;2022-07-23T02:59:11;6.53;;;3.30;;
31368;SDS011;18004;48.416;10.066;2022-07-23T03:01:37;5.82;;;3.45;;
31368;SDS011;18004;48.416;10.066;2022-07-23T03:04:02;4.63;;;3.72;;
31368;SDS011;18004;48.416;10.066;2022-07-23T03:06:28;3.33;;;3.03;;
31368;SDS011;18004;48.416;10.066;2022-07-23T03:08:54;4.20;;;3.55;;
31368;SDS011;18004;48.416;10.066;2022-07-23T03:11:20;4.25;;;3.35;;
31368;SDS011;18004;48.416;10.066;2022-07-23T03:13:46;4.13;;;3.33;;
31368;SDS011;18004;48.416;10.066;2022-07-23T03:16:11;6.45;;;3.60;;
31368;SDS011;18004;48.416;10.066;2022-07-23T03:18:37;5.10;;;3.70;;
31368;SDS011;18004;48.416;10.066;2022-07-23T03:21:03;8.02;;;4.20;;
31368;SDS011;18004;48.416;10.066;2022-07-23T03:23:29;6.63;;;4.07;;
31368;SDS011;18004;48.416;10.066;2022-07-23T03:25:54;5.05;;;3.38;;
31368;SDS011;18004;48.416;10.066;2022-07-23T03:28:20;4.90;;;3.70;;
31368;SDS011;18004;48.416;10.066;2022-07-23T03:30:46;4.40;;;3.15;;
31368;SDS011;18004;48.416;10.066;2022-07-23T03:33:16;5.25;;;3.42;;
31368;SDS011;18004;48.416;10.066;2022-07-23T03:35:44;5.50;;;3.75;;
31368;SDS011;18004;48.416;10.066;2022-07-23T03:38:11;5.80;;;3.53;;
31368;SDS011;18004;48.416;10.066;2022-07-23T03:40:37;5.15;;;3.38;;
31368;SDS011;18004;48.416;10.066;2022-07-23T03:43:03;10.60;;;3.80;;
31368;SDS011;18004;48.416;10.066;2022-07-23T03:45:29;4.40;;;3.30;;
31368;SDS011;18004;48.416;10.066;2022-07-23T03:47:55;7.72;;;3.88;;
31368;SDS011;18004;48.416;10.066;2022-07-23T03:50:21;4.22;;;3.55;;
31368;SDS011;18004;48.416;10.066;2022-07-23T03:52:47;6.03;;;3.60;;
31368;SDS011;18004;48.416;10.066;2022-07-23T03:55:13;6.28;;;3.67;;
31368;SDS011;18004;48.416;10.066;2022-07-23T03:57:40;3.80;;;3.40;;
31368;SDS011;18004;48.416;10.066;2022-07-23T04:00:06;5.03;;;3.60;;
31368;SDS011;18004;48.416;10.066;2022-07-23T04:02:34;5.30;;;3.47;;
31368;SDS011;18004;48.416;10.066;2022-07-23T04:05:01;3.92;;;3.40;;
31368;SDS011;18004;48.416;10.066;2022-07-23T04:07:27;5.35;;;3.25;;
31368;SDS011;18004;48.416;10.066;2022-07-23T04:09:53;4.13;;;3.25;;
31368;SDS011;18004;48.416;10.066;2022-07-23T04:12:18;6.00;;;3.88;;
31368;SDS011;18004;48.416;10.066;2022-07-23T04:14:44;5.22;;;3.75;;
31368;SDS011;18004;48.416;10.066;2022-07-23T04:17:11;8.52;;;3.90;;
31368;SDS011;18004;48.416;10.066;2022-07-23T04:19:37;4.35;;;3.72;;
31368;SDS011;18004;48.416;10.066;2022-07-23T04:22:09;6.50;;;4.25;;
31368;SDS011;18004;48.416;10.066;2022-07-23T04:24:36;5.47;;;3.97;;
31368;SDS011;18004;48.416;10.066;2022-07-23T04:27:02;4.97;;;3.30;;
31368;SDS011;18004;48.416;10.066;2022-07-23T04:29:28;5.47;;;3.45;;
31368;SDS011;18004;48.416;10.066;2022-07-23T04:31:54;5.43;;;3.30;;
31368;SDS011;18004;48.416;10.066;2022-07-23T04:34:20;6.70;;;3.72;;
31368;SDS011;18004;48.416;10.066;2022-07-23T04:36:47;4.45;;;3.45;;
31368;SDS011;18004;48.416;10.066;2022-07-23T04:39:12;5.57;;;3.83;;
31368;SDS011;18004;48.416;10.066;2022-07-23T04:41:38;6.00;;;3.70;;
31368;SDS011;18004;48.416;10.066;2022-07-23T04:44:04;4.45;;;3.65;;
31368;SDS011;18004;48.416;10.066;2022-07-23T04:46:30;6.47;;;3.50;;
31368;SDS011;18004;48.416;10.066;2022-07-23T04:48:56;6.22;;;3.22;;
31368;SDS011;18004;48.416;10.066;2022-07-23T04:51:22;4.82;;;3.63;;
31368;SDS011;18004;48.416;10.066;2022-07-23T04:53:48;5.68;;;3.50;;
31368;SDS011;18004;48.416;10.066;2022-07-23T04:56:14;5.40;;;3.60;;
31368;SDS011;18004;48.416;10.066;2022-07-23T04:58:39;11.88;;;4.10;;
31368;SDS011;18004;48.416;10.066;2022-07-23T05:01:05;3.63;;;3.22;;
31368;SDS011;18004;48.416;10.066;2022-07-23T05:03:31;6.32;;;3.22;;
31368;SDS011;18004;48.416;10.066;2022-07-23T05:05:57;6.63;;;4.13;;
31368;SDS011;18004;48.416;10.066;2022-07-23T05:08:23;4.22;;;3.53;;
31368;SDS011;18004;48.416;10.066;2022-07-23T05:10:49;5.78;;;3.85;;
31368;SDS011;18004;48.416;10.066;2022-07-23T05:13:15;4.55;;;3.63;;
31368;SDS011;18004;48.416;10.066;2022-07-23T05:15:41;3.90;;;3.17;;
31368;SDS011;18004;48.416;10.066;2022-07-23T05:18:07;4.50;;;3.60;;
31368;SDS011;18004;48.416;10.066;2022-07-23T05:20:33;6.45;;;4.00;;
31368;SDS011;18004;48.416;10.066;2022-07-23T05:22:59;7.43;;;4.07;;
31368;SDS011;18004;48.416;10.066;2022-07-23T05:25:25;3.70;;;3.30;;
31368;SDS011;18004;48.416;10.066;2022-07-23T05:27:51;6.80;;;4.18;;
31368;SDS011;18004;48.416;10.066;2022-07-23T05:30:16;4.85;;;3.95;;
31368;SDS011;18004;48.416;10.066;2022-07-23T05:32:42;6.22;;;3.92;;
31368;SDS011;18004;48.416;10.066;2022-07-23T05:35:08;7.07;;;4.38;;
31368;SDS011;18004;48.416;10.066;2022-07-23T05:37:34;5.97;;;4.13;;
31368;SDS011;18004;48.416;10.066;2022-07-23T05:40:01;5.70;;;4.20;;
31368;SDS011;18004;48.416;10.066;2022-07-23T05:42:33;5.63;;;3.83;;
31368;SDS011;18004;48.416;10.066;2022-07-23T05:44:59;5.20;;;4.10;;
31368;SDS011;18004;48.416;10.066;2022-07-23T05:47:25;5.63;;;4.18;;
31368;SDS011;18004;48.416;10.066;2022-07-23T05:49:51;7.45;;;3.92;;
31368;SDS011;18004;48.416;10.066;2022-07-23T05:52:17;9.10;;;4.57;;
31368;SDS011;18004;48.416;10.066;2022-07-23T05:54:42;7.20;;;5.15;;
31368;SDS011;18004;48.416;10.066;2022-07-23T05:57:08;6.82;;;4.82;;
31368;SDS011;18004;48.416;10.066;2022-07-23T05:59:34;6.38;;;4.85;;
31368;SDS011;18004;48.416;10.066;2022-07-23T06:02:00;6.75;;;5.05;;
31368;SDS011;18004;48.416;10.066;2022-07-23T06:04:26;8.05;;;4.90;;
31368;SDS011;18004;48.416;10.066;2022-07-23T06:06:51;9.25;;;5.03;;
31368;SDS011;18004;48.416;10.066;2022-07-23T06:09:17;12.15;;;5.72;;
31368;SDS011;18004;48.416;10.066;2022-07-23T06:11:43;10.15;;;5.88;;
31368;SDS011;18004;48.416;10.066;2022-07-23T06:14:09;8.07;;;4.68;;
31368;SDS011;18004;48.416;10.066;2022-07-23T06:16:35;7.68;;;5.00;;
31368;SDS011;18004;48.416;10.066;2022-07-23T06:19:00;9.85;;;4.85;;
31368;SDS011;18004;48.416;10.066;2022-07-23T06:21:26;11.38;;;5.13;;
31368;SDS011;18004;48.416;10.066;2022-07-23T06:23:52;10.95;;;4.88;;
31368;SDS011;18004;48.416;10.066;2022-07-23T06:26:18;8.45;;;4.28;;
31368;SDS011;18004;48.416;10.066;2022-07-23T06:28:43;6.68;;;4.43;;
31368;SDS011;18004;48.416;10.066;2022-07-23T06:31:09;7.82;;;4.55;;
31368;SDS011;18004;48.416;10.066;2022-07-23T06:33:35;5.13;;;4.28;;
31368;SDS011;18004;48.416;10.066;2022-07-23T06:36:01;6.65;;;4.55;;
31368;SDS011;18004;48.416;10.066;2022-07-23T06:38:29;6.07;;;4.70;;
31368;SDS011;18004;48.416;10.066;2022-07-23T06:40:55;6.60;;;4.35;;
31368;SDS011;18004;48.416;10.066;2022-07-23T06:43:21;7.90;;;4.22;;
31368;SDS011;18004;48.416;10.066;2022-07-23T06:45:47;7.93;;;4.72;;
31368;SDS011;18004;48.416;10.066;2022-07-23T06:48:12;5.90;;;4.18;;
31368;SDS011;18004;48.416;10.066;2022-07-23T06:50:38;5.95;;;4.07;;
31368;SDS011;18004;48.416;10.066;2022-07-23T06:53:04;4.90;;;4.15;;
31368;SDS011;18004;48.416;10.066;2022-07-23T06:55:29;6.28;;;3.90;;
31368;SDS011;18004;48.416;10.066;2022-07-23T06:57:56;5.93;;;4.30;;
31368;SDS011;18004;48.416;10.066;2022-07-23T07:00:22;4.95;;;3.83;;
31368;SDS011;18004;48.416;10.066;2022-07-23T07:02:47;5.03;;;3.65;;
31368;SDS011;18004;48.416;10.066;2022-07-23T07:05:13;5.28;;;3.75;;
31368;SDS011;18004;48.416;10.066;2022-07-23T07:07:39;6.68;;;4.03;;
31368;SDS011;18004;48.416;10.066;2022-07-23T07:10:05;6.32;;;3.78;;
31368;SDS011;18004;48.416;10.066;2022-07-23T07:12:31;4.78;;;3.60;;
31368;SDS011;18004;48.416;10.066;2022-07-23T07:14:57;5.10;;;3.42;;
31368;SDS011;18004;48.416;10.066;2022-07-23T07:17:23;5.05;;;3.88;;
31368;SDS011;18004;48.416;10.066;2022-07-23T07:19:48;4.50;;;3.42;;
31368;SDS011;18004;48.416;10.066;2022-07-23T07:22:14;5.22;;;3.50;;
31368;SDS011;18004;48.416;10.066;2022-07-23T07:24:40;4.65;;;3.55;;
31368;SDS011;18004;48.416;10.066;2022-07-23T07:27:06;5.78;;;4.00;;
31368;SDS011;18004;48.416;10.066;2022-07-23T07:29:31;8.35;;;3.90;;
31368;SDS011;18004;48.416;10.066;2022-07-23T07:31:57;3.67;;;3.10;;
31368;SDS011;18004;48.416;10.066;2022-07-23T07:34:23;5.03;;;3.60;;
31368;SDS011;18004;48.416;10.066;2022-07-23T07:36:49;7.32;;;3.17;;
31368;SDS011;18004;48.416;10.066;2022-07-23T07:39:15;4.85;;;3.45;;
31368;SDS011;18004;48.416;10.066;2022-07-23T07:41:41;7.57;;;3.08;;
31368;SDS011;18004;48.416;10.066;2022-07-23T07:44:07;7.72;;;3.25;;
31368;SDS011;18004;48.416;10.066;2022-07-23T07:46:33;4.32;;;3.13;;
31368;SDS011;18004;48.416;10.066;2022-07-23T07:49:13;3.45;;;2.75;;
31368;SDS011;18004;48.416;10.066;2022-07-23T07:51:42;5.00;;;3.08;;
31368;SDS011;18004;48.416;10.066;2022-07-23T07:54:13;3.00;;;2.60;;
31368;SDS011;18004;48.416;10.066;2022-07-23T07:56:47;3.25;;;2.55;;
31368;SDS011;18004;48.416;10.066;2022-07-23T07:59:13;5.53;;;2.85;;
31368;SDS011;18004;48.416;10.066;2022-07-23T08:01:40;3.63;;;2.65;;
31368;SDS011;18004;48.416;10.066;2022-07-23T08:04:06;3.45;;;3.03;;
31368;SDS011;18004;48.416;10.066;2022-07-23T08:06:31;3.47;;;2.60;;
31368;SDS011;18004;48.416;10.066;2022-07-23T08:09:03;2.45;;;2.25;;
31368;SDS011;18004;48.416;10.066;2022-07-23T08:11:29;3.33;;;2.28;;
31368;SDS011;18004;48.416;10.066;2022-07-23T08:14:24;4.03;;;2.78;;
31368;SDS011;18004;48.416;10.066;2022-07-23T08:17:19;3.95;;;2.70;;
31368;SDS011;18004;48.416;10.066;2022-07-23T08:19:44;3.20;;;2.35;;
31368;SDS011;18004;48.416;10.066;2022-07-23T08:22:10;3.72;;;1.90;;
31368;SDS011;18004;48.416;10.066;2022-07-23T08:24:48;3.90;;;2.22;;
31368;SDS011;18004;48.416;10.066;2022-07-23T08:27:14;3.42;;;2.22;;
31368;SDS011;18004;48.416;10.066;2022-07-23T08:29:40;3.47;;;2.08;;
31368;SDS011;18004;48.416;10.066;2022-07-23T08:32:06;2.45;;;2.03;;
31368;SDS011;18004;48.416;10.066;2022-07-23T08:34:40;3.30;;;2.25;;
31368;SDS011;18004;48.416;10.066;2022-07-23T08:37:14;2.67;;;2.05;;
31368;SDS011;18004;48.416;10.066;2022-07-23T08:39:40;3.15;;;2.20;;
31368;SDS011;18004;48.416;10.066;2022-07-23T08:42:06;2.13;;;1.75;;
31368;SDS011;18004;48.416;10.066;2022-07-23T08:44:33;4.03;;;2.35;;
31368;SDS011;18004;48.416;10.066;2022-07-23T08:47:00;2.72;;;2.20;;
31368;SDS011;18004;48.416;10.066;2022-07-23T08:49:38;3.08;;;2.50;;
31368;SDS011;18004;48.416;10.066;2022-07-23T08:52:12;2.88;;;2.50;;
31368;SDS011;18004;48.416;10.066;2022-07-23T08:54:49;5.45;;;2.10;;
31368;SDS011;18004;48.416;10.066;2022-07-23T08:57:18;4.47;;;2.60;;
31368;SDS011;18004;48.416;10.066;2022-07-23T08:59:44;2.70;;;2.13;;
31368;SDS011;18004;48.416;10.066;2022-07-23T09:02:10;3.45;;;2.50;;
31368;SDS011;18004;48.416;10.066;2022-07-23T09:04:37;5.95;;;2.85;;
31368;SDS011;18004;48.416;10.066;2022-07-23T09:07:03;5.45;;;2.58;;
31368;SDS011;18004;48.416;10.066;2022-07-23T09:09:28;2.63;;;2.22;;
31368;SDS011;18004;48.416;10.066;2022-07-23T09:12:08;4.32;;;2.80;;
31368;SDS011;18004;48.416;10.066;2022-07-23T09:14:35;3.80;;;2.70;;
31368;SDS011;18004;48.416;10.066;2022-07-23T09:17:16;2.30;;;1.98;;
31368;SDS011;18004;48.416;10.066;2022-07-23T09:20:12;4.03;;;2.58;;
31368;SDS011;18004;48.416;10.066;2022-07-23T09:22:51;4.47;;;2.28;;
31368;SDS011;18004;48.416;10.066;2022-07-23T09:25:41;3.55;;;2.53;;
31368;SDS011;18004;48.416;10.066;2022-07-23T09:28:08;2.90;;;2.60;;
31368;SDS011;18004;48.416;10.066;2022-07-23T09:30:34;3.35;;;2.22;;
31368;SDS011;18004;48.416;10.066;2022-07-23T09:33:04;3.58;;;2.45;;
31368;SDS011;18004;48.416;10.066;2022-07-23T09:35:51;2.80;;;2.03;;
31368;SDS011;18004;48.416;10.066;2022-07-23T09:38:52;2.80;;;2.60;;
31368;SDS011;18004;48.416;10.066;2022-07-23T09:41:19;3.92;;;2.88;;
31368;SDS011;18004;48.416;10.066;2022-07-23T09:43:55;3.83;;;2.58;;
31368;SDS011;18004;48.416;10.066;2022-07-23T09:46:23;2.75;;;2.53;;
31368;SDS011;18004;48.416;10.066;2022-07-23T09:48:53;5.93;;;2.75;;
31368;SDS011;18004;48.416;10.066;2022-07-23T09:51:22;4.60;;;2.80;;
31368;SDS011;18004;48.416;10.066;2022-07-23T09:53:54;2.85;;;2.50;;
31368;SDS011;18004;48.416;10.066;2022-07-23T09:56:52;3.35;;;3.03;;
31368;SDS011;18004;48.416;10.066;2022-07-23T09:59:50;3.63;;;2.90;;
31368;SDS011;18004;48.416;10.066;2022-07-23T10:06:05;4.43;;;2.53;;
31368;SDS011;18004;48.416;10.066;2022-07-23T10:08:56;3.05;;;2.78;;
31368;SDS011;18004;48.416;10.066;2022-07-23T10:11:30;5.55;;;2.80;;
31368;SDS011;18004;48.416;10.066;2022-07-23T10:24:51;3.50;;;2.67;;
31368;SDS011;18004;48.416;10.066;2022-07-23T10:30:12;4.05;;;3.05;;
31368;SDS011;18004;48.416;10.066;2022-07-23T10:49:21;9.05;;;2.97;;
31368;SDS011;18004;48.416;10.066;2022-07-23T10:57:08;2.90;;;2.60;;
31368;SDS011;18004;48.416;10.066;2022-07-23T11:03:00;4.57;;;3.08;;
31368;SDS011;18004;48.416;10.066;2022-07-23T11:05:49;4.47;;;3.28;;
31368;SDS011;18004;48.416;10.066;2022-07-23T11:08:46;4.90;;;2.80;;
31368;SDS011;18004;48.416;10.066;2022-07-23T12:06:46;5.00;;;2.70;;
31368;SDS011;18004;48.416;10.066;2022-07-23T12:14:01;4.40;;;2.97;;
31368;SDS011;18004;48.416;10.066;2022-07-23T12:16:27;7.90;;;3.95;;
31368;SDS011;18004;48.416;10.066;2022-07-23T12:18:53;7.47;;;3.03;;
31368;SDS011;18004;48.416;10.066;2022-07-23T12:21:22;5.70;;;3.17;;
31368;SDS011;18004;48.416;10.066;2022-07-23T12:24:11;4.93;;;2.80;;
31368;SDS011;18004;48.416;10.066;2022-07-23T12:27:07;4.20;;;2.72;;
31368;SDS011;18004;48.416;10.066;2022-07-23T12:33:56;3.40;;;3.03;;
31368;SDS011;18004;48.416;10.066;2022-07-23T12:46:26;7.70;;;2.15;;
31368;SDS011;18004;48.416;10.066;2022-07-23T12:55:47;2.83;;;2.00;;
31368;SDS011;18004;48.416;10.066;2022-07-23T12:59:25;3.95;;;2.28;;
31368;SDS011;18004;48.416;10.066;2022-07-23T13:01:56;2.90;;;2.35;;
31368;SDS011;18004;48.416;10.066;2022-07-23T13:08:15;3.47;;;2.40;;
31368;SDS011;18004;48.416;10.066;2022-07-23T15:14:26;4.10;;;3.55;;
31368;SDS011;18004;48.416;10.066;2022-07-23T15:17:50;7.82;;;3.80;;
31368;SDS011;18004;48.416;10.066;2022-07-23T15:24:50;5.93;;;3.78;;
31368;SDS011;18004;48.416;10.066;2022-07-23T15:27:23;6.55;;;3.60;;
31368;SDS011;18004;48.416;10.066;2022-07-23T15:29:48;6.07;;;4.15;;
31368;SDS011;18004;48.416;10.066;2022-07-23T15:32:20;4.97;;;3.60;;
31368;SDS011;18004;48.416;10.066;2022-07-23T15:35:10;6.35;;;3.72;;
31368;SDS011;18004;48.416;10.066;2022-07-23T15:38:29;6.20;;;4.10;;
31368;SDS011;18004;48.416;10.066;2022-07-23T15:41:26;3.47;;;3.17;;
31368;SDS011;18004;48.416;10.066;2022-07-23T15:44:03;3.33;;;3.00;;
31368;SDS011;18004;48.416;10.066;2022-07-23T15:51:48;6.60;;;3.95;;
31368;SDS011;18004;48.416;10.066;2022-07-23T15:54:25;4.70;;;3.50;;
31368;SDS011;18004;48.416;10.066;2022-07-23T15:57:10;5.40;;;3.33;;
31368;SDS011;18004;48.416;10.066;2022-07-23T15:59:58;7.40;;;3.38;;
31368;SDS011;18004;48.416;10.066;2022-07-23T16:05:36;7.95;;;3.28;;
31368;SDS011;18004;48.416;10.066;2022-07-23T16:09:35;3.80;;;3.25;;
31368;SDS011;18004;48.416;10.066;2022-07-23T16:13:13;4.55;;;3.20;;
31368;SDS011;18004;48.416;10.066;2022-07-23T16:16:23;4.85;;;3.58;;
31368;SDS011;18004;48.416;10.066;2022-07-23T16:49:39;3.92;;;3.00;;
31368;SDS011;18004;48.416;10.066;2022-07-23T17:27:51;4.50;;;3.22;;
31368;SDS011;18004;48.416;10.066;2022-07-23T17:36:19;4.20;;;3.15;;
31368;SDS011;18004;48.416;10.066;2022-07-23T17:39:38;3.60;;;3.22;;
31368;SDS011;18004;48.416;10.066;2022-07-23T17:43:04;5.25;;;3.20;;
31368;SDS011;18004;48.416;10.066;2022-07-23T17:54:12;4.22;;;3.25;;
31368;SDS011;18004;48.416;10.066;2022-07-23T18:05:53;4.13;;;2.78;;
31368;SDS011;18004;48.416;10.066;2022-07-23T18:09:09;3.05;;;2.63;;
31368;SDS011;18004;48.416;10.066;2022-07-23T18:36:21;3.03;;;2.72;;
31368;SDS011;18004;48.416;10.066;2022-07-23T18:38:47;4.38;;;3.60;;
31368;SDS011;18004;48.416;10.066;2022-07-23T18:41:19;3.15;;;2.85;;
31368;SDS011;18004;48.416;10.066;2022-07-23T18:44:12;5.82;;;3.38;;
31368;SDS011;18004;48.416;10.066;2022-07-23T18:46:43;4.82;;;3.30;;
31368;SDS011;18004;48.416;10.066;2022-07-23T18:49:14;2.97;;;2.70;;
31368;SDS011;18004;48.416;10.066;2022-07-23T18:51:50;4.47;;;3.00;;
31368;SDS011;18004;48.416;10.066;2022-07-23T18:54:26;4.88;;;2.92;;
31368;SDS011;18004;48.416;10.066;2022-07-23T18:57:14;4.47;;;3.25;;
31368;SDS011;18004;48.416;10.066;2022-07-23T18:59:47;4.95;;;3.33;;
31368;SDS011;18004;48.416;10.066;2022-07-23T19:02:22;4.10;;;3.45;;
31368;SDS011;18004;48.416;10.066;2022-07-23T19:05:08;5.22;;;3.33;;
31368;SDS011;18004;48.416;10.066;2022-07-23T19:07:38;3.47;;;3.10;;
31368;SDS011;18004;48.416;10.066;2022-07-23T19:10:04;3.55;;;3.15;;
31368;SDS011;18004;48.416;10.066;2022-07-23T19:12:31;3.35;;;3.05;;
31368;SDS011;18004;48.416;10.066;2022-07-23T19:14:57;3.85;;;3.42;;
31368;SDS011;18004;48.416;10.066;2022-07-23T19:17:43;5.57;;;3.55;;
31368;SDS011;18004;48.416;10.066;2022-07-23T19:20:39;4.20;;;2.90;;
31368;SDS011;18004;48.416;10.066;2022-07-23T19:23:25;3.55;;;3.15;;
31368;SDS011;18004;48.416;10.066;2022-07-23T19:26:10;4.60;;;2.78;;
31368;SDS011;18004;48.416;10.066;2022-07-23T19:28:39;6.18;;;3.38;;
31368;SDS011;18004;48.416;10.066;2022-07-23T19:31:11;5.68;;;3.97;;
31368;SDS011;18004;48.416;10.066;2022-07-23T19:33:42;4.88;;;3.42;;
31368;SDS011;18004;48.416;10.066;2022-07-23T19:36:11;3.90;;;3.28;;
31368;SDS011;18004;48.416;10.066;2022-07-23T19:38:37;4.25;;;3.83;;
31368;SDS011;18004;48.416;10.066;2022-07-23T19:41:05;6.10;;;4.13;;
31368;SDS011;18004;48.416;10.066;2022-07-23T19:43:31;6.10;;;3.67;;
31368;SDS011;18004;48.416;10.066;2022-07-23T19:46:00;7.90;;;3.92;;
31368;SDS011;18004;48.416;10.066;2022-07-23T19:48:26;4.32;;;3.42;;
31368;SDS011;18004;48.416;10.066;2022-07-23T19:50:53;4.78;;;3.97;;
31368;SDS011;18004;48.416;10.066;2022-07-23T19:53:40;21.70;;;13.23;;
31368;SDS011;18004;48.416;10.066;2022-07-23T19:57:06;17.23;;;10.73;;
31368;SDS011;18004;48.416;10.066;2022-07-23T19:59:41;7.75;;;4.38;;
31368;SDS011;18004;48.416;10.066;2022-07-23T20:02:07;5.97;;;3.95;;
31368;SDS011;18004;48.416;10.066;2022-07-23T20:04:34;4.43;;;4.00;;
31368;SDS011;18004;48.416;10.066;2022-07-23T20:07:06;5.38;;;3.78;;
31368;SDS011;18004;48.416;10.066;2022-07-23T20:10:02;5.80;;;4.03;;
31368;SDS011;18004;48.416;10.066;2022-07-23T20:13:07;5.70;;;3.88;;
31368;SDS011;18004;48.416;10.066;2022-07-23T20:15:38;4.00;;;3.47;;
31368;SDS011;18004;48.416;10.066;2022-07-23T20:18:06;6.18;;;3.95;;
31368;SDS011;18004;48.416;10.066;2022-07-23T20:20:32;7.47;;;3.50;;
31368;SDS011;18004;48.416;10.066;2022-07-23T20:23:02;7.68;;;3.47;;
31368;SDS011;18004;48.416;10.066;2022-07-23T20:25:28;6.00;;;3.88;;
31368;SDS011;18004;48.416;10.066;2022-07-23T20:27:54;5.30;;;3.63;;
31368;SDS011;18004;48.416;10.066;2022-07-23T20:30:21;7.85;;;3.85;;
31368;SDS011;18004;48.416;10.066;2022-07-23T20:32:49;4.85;;;3.50;;
31368;SDS011;18004;48.416;10.066;2022-07-23T20:35:16;4.20;;;3.47;;
31368;SDS011;18004;48.416;10.066;2022-07-23T20:37:42;6.53;;;3.92;;
31368;SDS011;18004;48.416;10.066;2022-07-23T20:40:08;6.07;;;4.18;;
31368;SDS011;18004;48.416;10.066;2022-07-23T20:42:34;7.05;;;3.50;;
31368;SDS011;18004;48.416;10.066;2022-07-23T20:45:00;3.97;;;3.58;;
31368;SDS011;18004;48.416;10.066;2022-07-23T20:47:26;6.82;;;3.88;;
31368;SDS011;18004;48.416;10.066;2022-07-23T20:49:52;3.28;;;2.92;;
31368;SDS011;18004;48.416;10.066;2022-07-23T20:52:18;3.72;;;3.35;;
31368;SDS011;18004;48.416;10.066;2022-07-23T20:54:48;4.57;;;3.38;;
31368;SDS011;18004;48.416;10.066;2022-07-23T20:57:16;4.43;;;3.17;;
31368;SDS011;18004;48.416;10.066;2022-07-23T20:59:42;5.63;;;3.75;;
31368;SDS011;18004;48.416;10.066;2022-07-23T21:02:19;13.38;;;6.90;;
31368;SDS011;18004;48.416;10.066;2022-07-23T21:05:05;6.03;;;4.05;;
31368;SDS011;18004;48.416;10.066;2022-07-23T21:07:32;3.65;;;3.25;;
31368;SDS011;18004;48.416;10.066;2022-07-23T21:09:58;5.65;;;3.67;;
31368;SDS011;18004;48.416;10.066;2022-07-23T21:12:41;6.53;;;3.38;;
31368;SDS011;18004;48.416;10.066;2022-07-23T21:15:07;4.13;;;2.97;;